sensor_id;sensor_type;location;lat;lon;timestamp;temperature;humidity
152;DHT22;68;48.792;9.164;2023-04-24T00:00:53;11.50;95.30
152;DHT22;68;48.792;9.164;2023-04-24T00:03:22;11.60;95.30
152;DHT22;68;48.792;9.164;2023-04-24T00:05:48;11.60;95.40
152;DHT22;68;48.792;9.164;2023-04-24T00:08:18;11.60;95.50
152;DHT22;68;48.792;9.164;2023-04-24T00:10:44;11.60;95.40
152;DHT22;68;48.792;9.164;2023-04-24T00:13:11;11.70;95.40
152;DHT22;68;48.792;9.164;2023-04-24T00:15:38;11.70;95.30
152;DHT22;68;48.792;9.164;2023-04-24T00:18:05;11.70;95.30
152;DHT22;68;48.792;9.164;2023-04-24T00:20:31;11.60;95.20
152;DHT22;68;48.792;9.164;2023-04-24T00:22:58;11.60;95.30
152;DHT22;68;48.792;9.164;2023-04-24T00:25:26;11.70;95.40
152;DHT22;68;48.792;9.164;2023-04-24T00:27:53;11.70;95.20
152;DHT22;68;48.792;9.164;2023-04-24T00:30:20;11.80;95.10
152;DHT22;68;48.792;9.164;2023-04-24T00:32:47;11.80;95.00
152;DHT22;68;48.792;9.164;2023-04-24T00:35:13;11.80;94.90
152;DHT22;68;48.792;9.164;2023-04-24T00:37:41;11.80;94.80
152;DHT22;68;48.792;9.164;2023-04-24T00:40:08;11.80;94.80
152;DHT22;68;48.792;9.164;2023-04-24T00:42:36;11.80;95.00
152;DHT22;68;48.792;9.164;2023-04-24T00:45:04;11.90;94.60
152;DHT22;68;48.792;9.164;2023-04-24T00:47:32;11.90;94.30
152;DHT22;68;48.792;9.164;2023-04-24T00:50:01;11.80;94.20
152;DHT22;68;48.792;9.164;2023-04-24T00:52:28;11.80;94.80
152;DHT22;68;48.792;9.164;2023-04-24T00:54:56;11.80;94.50
152;DHT22;68;48.792;9.164;2023-04-24T00:57:23;11.90;95.00
152;DHT22;68;48.792;9.164;2023-04-24T00:59:52;11.90;94.40
152;DHT22;68;48.792;9.164;2023-04-24T01:02:19;12.00;94.20
152;DHT22;68;48.792;9.164;2023-04-24T01:04:48;11.90;94.20
152;DHT22;68;48.792;9.164;2023-04-24T01:07:17;11.90;94.20
152;DHT22;68;48.792;9.164;2023-04-24T01:09:45;11.90;94.30
152;DHT22;68;48.792;9.164;2023-04-24T01:12:15;11.90;94.20
152;DHT22;68;48.792;9.164;2023-04-24T01:14:42;11.90;94.10
152;DHT22;68;48.792;9.164;2023-04-24T01:17:10;12.00;94.00
152;DHT22;68;48.792;9.164;2023-04-24T01:19:38;12.00;93.90
152;DHT22;68;48.792;9.164;2023-04-24T01:22:10;12.10;93.70
152;DHT22;68;48.792;9.164;2023-04-24T01:24:37;12.00;93.70
152;DHT22;68;48.792;9.164;2023-04-24T01:27:04;12.00;93.60
152;DHT22;68;48.792;9.164;2023-04-24T01:29:31;12.00;93.90
152;DHT22;68;48.792;9.164;2023-04-24T01:31:58;12.00;93.80
152;DHT22;68;48.792;9.164;2023-04-24T01:34:25;12.00;93.90
152;DHT22;68;48.792;9.164;2023-04-24T01:36:52;12.00;93.90
152;DHT22;68;48.792;9.164;2023-04-24T01:39:20;12.10;94.10
152;DHT22;68;48.792;9.164;2023-04-24T01:41:48;12.00;94.10
152;DHT22;68;48.792;9.164;2023-04-24T01:44:16;11.90;94.20
152;DHT22;68;48.792;9.164;2023-04-24T01:46:43;12.00;94.30
152;DHT22;68;48.792;9.164;2023-04-24T01:49:10;12.00;94.50
152;DHT22;68;48.792;9.164;2023-04-24T01:51:37;12.10;94.50
152;DHT22;68;48.792;9.164;2023-04-24T01:54:04;12.10;94.20
152;DHT22;68;48.792;9.164;2023-04-24T01:56:33;12.10;94.50
152;DHT22;68;48.792;9.164;2023-04-24T01:59:02;12.20;94.50
152;DHT22;68;48.792;9.164;2023-04-24T02:01:34;12.20;94.40
152;DHT22;68;48.792;9.164;2023-04-24T02:04:02;12.00;94.00
152;DHT22;68;48.792;9.164;2023-04-24T02:06:29;12.00;94.50
152;DHT22;68;48.792;9.164;2023-04-24T02:08:57;12.00;94.50
152;DHT22;68;48.792;9.164;2023-04-24T02:11:24;11.90;94.90
152;DHT22;68;48.792;9.164;2023-04-24T02:13:52;11.90;94.80
152;DHT22;68;48.792;9.164;2023-04-24T02:16:19;11.90;94.80
152;DHT22;68;48.792;9.164;2023-04-24T02:18:45;11.80;94.80
152;DHT22;68;48.792;9.164;2023-04-24T02:21:12;11.90;94.90
152;DHT22;68;48.792;9.164;2023-04-24T02:23:39;11.90;94.90
152;DHT22;68;48.792;9.164;2023-04-24T02:26:06;11.90;95.00
152;DHT22;68;48.792;9.164;2023-04-24T02:28:33;11.90;95.10
152;DHT22;68;48.792;9.164;2023-04-24T02:31:01;12.00;95.00
152;DHT22;68;48.792;9.164;2023-04-24T02:33:28;12.10;95.20
152;DHT22;68;48.792;9.164;2023-04-24T02:35:54;12.20;94.80
152;DHT22;68;48.792;9.164;2023-04-24T02:38:22;12.20;94.50
152;DHT22;68;48.792;9.164;2023-04-24T02:40:48;12.20;94.40
152;DHT22;68;48.792;9.164;2023-04-24T02:43:15;12.20;94.70
152;DHT22;68;48.792;9.164;2023-04-24T02:45:42;12.10;94.90
152;DHT22;68;48.792;9.164;2023-04-24T02:48:10;12.10;95.20
152;DHT22;68;48.792;9.164;2023-04-24T02:50:37;12.00;94.90
152;DHT22;68;48.792;9.164;2023-04-24T02:53:03;11.90;93.60
152;DHT22;68;48.792;9.164;2023-04-24T02:55:30;11.80;91.90
152;DHT22;68;48.792;9.164;2023-04-24T02:57:57;11.80;90.70
152;DHT22;68;48.792;9.164;2023-04-24T03:00:24;11.70;89.70
152;DHT22;68;48.792;9.164;2023-04-24T03:02:50;11.70;88.30
152;DHT22;68;48.792;9.164;2023-04-24T03:05:18;11.90;88.30
152;DHT22;68;48.792;9.164;2023-04-24T03:07:45;11.90;88.10
152;DHT22;68;48.792;9.164;2023-04-24T03:10:12;12.00;86.80
152;DHT22;68;48.792;9.164;2023-04-24T03:12:39;12.00;88.60
152;DHT22;68;48.792;9.164;2023-04-24T03:15:06;12.00;87.40
152;DHT22;68;48.792;9.164;2023-04-24T03:17:33;12.00;88.40
152;DHT22;68;48.792;9.164;2023-04-24T03:20:00;11.90;87.70
152;DHT22;68;48.792;9.164;2023-04-24T03:22:29;11.80;87.90
152;DHT22;68;48.792;9.164;2023-04-24T03:24:57;11.70;87.00
152;DHT22;68;48.792;9.164;2023-04-24T03:27:24;11.40;85.60
152;DHT22;68;48.792;9.164;2023-04-24T03:29:51;11.30;83.50
152;DHT22;68;48.792;9.164;2023-04-24T03:32:20;11.40;81.80
152;DHT22;68;48.792;9.164;2023-04-24T03:34:47;11.50;82.50
152;DHT22;68;48.792;9.164;2023-04-24T03:37:14;11.50;84.30
152;DHT22;68;48.792;9.164;2023-04-24T03:39:42;11.40;84.60
152;DHT22;68;48.792;9.164;2023-04-24T03:42:08;11.60;84.00
152;DHT22;68;48.792;9.164;2023-04-24T03:44:35;11.60;83.80
152;DHT22;68;48.792;9.164;2023-04-24T03:47:02;11.60;84.60
152;DHT22;68;48.792;9.164;2023-04-24T03:49:29;11.40;85.90
152;DHT22;68;48.792;9.164;2023-04-24T03:51:55;11.30;85.90
152;DHT22;68;48.792;9.164;2023-04-24T03:54:22;11.40;85.00
152;DHT22;68;48.792;9.164;2023-04-24T03:56:50;11.20;84.40
152;DHT22;68;48.792;9.164;2023-04-24T03:59:17;11.20;83.30
152;DHT22;68;48.792;9.164;2023-04-24T04:01:44;11.30;83.30
152;DHT22;68;48.792;9.164;2023-04-24T04:04:11;11.30;85.00
152;DHT22;68;48.792;9.164;2023-04-24T04:06:38;11.20;84.70
152;DHT22;68;48.792;9.164;2023-04-24T04:09:04;11.30;85.20
152;DHT22;68;48.792;9.164;2023-04-24T04:11:32;11.20;84.10
152;DHT22;68;48.792;9.164;2023-04-24T04:14:00;11.30;83.80
152;DHT22;68;48.792;9.164;2023-04-24T04:16:27;11.30;84.40
152;DHT22;68;48.792;9.164;2023-04-24T04:18:54;11.20;83.80
152;DHT22;68;48.792;9.164;2023-04-24T04:21:21;11.30;82.80
152;DHT22;68;48.792;9.164;2023-04-24T04:23:48;11.30;81.90
152;DHT22;68;48.792;9.164;2023-04-24T04:26:14;11.30;83.10
152;DHT22;68;48.792;9.164;2023-04-24T04:28:41;11.20;84.80
152;DHT22;68;48.792;9.164;2023-04-24T04:31:11;11.10;81.60
152;DHT22;68;48.792;9.164;2023-04-24T04:33:38;10.80;76.00
152;DHT22;68;48.792;9.164;2023-04-24T04:36:05;10.80;80.30
152;DHT22;68;48.792;9.164;2023-04-24T04:38:32;10.60;85.50
152;DHT22;68;48.792;9.164;2023-04-24T04:40:59;10.60;87.00
152;DHT22;68;48.792;9.164;2023-04-24T04:43:25;10.70;85.90
152;DHT22;68;48.792;9.164;2023-04-24T04:45:52;10.70;84.80
152;DHT22;68;48.792;9.164;2023-04-24T04:48:21;10.60;86.00
152;DHT22;68;48.792;9.164;2023-04-24T04:50:48;10.60;81.60
152;DHT22;68;48.792;9.164;2023-04-24T04:53:15;10.50;85.60
152;DHT22;68;48.792;9.164;2023-04-24T04:55:41;10.40;86.70
152;DHT22;68;48.792;9.164;2023-04-24T04:58:08;10.50;83.30
152;DHT22;68;48.792;9.164;2023-04-24T05:00:35;10.60;84.60
152;DHT22;68;48.792;9.164;2023-04-24T05:03:03;10.60;86.70
152;DHT22;68;48.792;9.164;2023-04-24T05:05:31;10.50;88.00
152;DHT22;68;48.792;9.164;2023-04-24T05:07:58;10.40;87.00
152;DHT22;68;48.792;9.164;2023-04-24T05:10:25;10.40;90.20
152;DHT22;68;48.792;9.164;2023-04-24T05:12:52;10.40;90.40
152;DHT22;68;48.792;9.164;2023-04-24T05:15:18;10.30;87.00
152;DHT22;68;48.792;9.164;2023-04-24T05:17:45;10.20;89.30
152;DHT22;68;48.792;9.164;2023-04-24T05:20:12;10.20;90.20
152;DHT22;68;48.792;9.164;2023-04-24T05:22:41;10.20;90.00
152;DHT22;68;48.792;9.164;2023-04-24T05:25:08;10.40;89.90
152;DHT22;68;48.792;9.164;2023-04-24T05:27:35;10.40;90.30
152;DHT22;68;48.792;9.164;2023-04-24T05:30:02;10.40;90.80
152;DHT22;68;48.792;9.164;2023-04-24T05:32:30;10.50;90.70
152;DHT22;68;48.792;9.164;2023-04-24T05:34:56;10.70;91.60
152;DHT22;68;48.792;9.164;2023-04-24T05:37:23;10.80;91.90
152;DHT22;68;48.792;9.164;2023-04-24T05:39:51;10.90;92.50
152;DHT22;68;48.792;9.164;2023-04-24T05:42:18;11.00;92.90
152;DHT22;68;48.792;9.164;2023-04-24T05:44:45;11.00;94.00
152;DHT22;68;48.792;9.164;2023-04-24T05:47:12;11.00;93.90
152;DHT22;68;48.792;9.164;2023-04-24T05:49:38;10.90;94.20
152;DHT22;68;48.792;9.164;2023-04-24T05:52:05;11.00;94.00
152;DHT22;68;48.792;9.164;2023-04-24T05:54:34;11.10;94.10
152;DHT22;68;48.792;9.164;2023-04-24T05:57:02;11.00;95.20
152;DHT22;68;48.792;9.164;2023-04-24T05:59:33;11.00;94.90
152;DHT22;68;48.792;9.164;2023-04-24T06:01:59;10.80;95.20
152;DHT22;68;48.792;9.164;2023-04-24T06:04:26;10.80;94.40
152;DHT22;68;48.792;9.164;2023-04-24T06:06:53;10.70;94.30
152;DHT22;68;48.792;9.164;2023-04-24T06:09:21;10.70;94.10
152;DHT22;68;48.792;9.164;2023-04-24T06:11:49;10.60;93.20
152;DHT22;68;48.792;9.164;2023-04-24T06:14:19;10.60;93.90
152;DHT22;68;48.792;9.164;2023-04-24T06:16:46;10.70;94.70
152;DHT22;68;48.792;9.164;2023-04-24T06:19:13;10.90;94.70
152;DHT22;68;48.792;9.164;2023-04-24T06:21:40;10.90;94.80
152;DHT22;68;48.792;9.164;2023-04-24T06:24:06;10.80;94.90
152;DHT22;68;48.792;9.164;2023-04-24T06:26:33;10.90;94.80
152;DHT22;68;48.792;9.164;2023-04-24T06:29:00;11.10;94.10
152;DHT22;68;48.792;9.164;2023-04-24T06:31:28;11.20;94.80
152;DHT22;68;48.792;9.164;2023-04-24T06:33:55;11.30;94.90
152;DHT22;68;48.792;9.164;2023-04-24T06:36:22;11.50;95.40
152;DHT22;68;48.792;9.164;2023-04-24T06:38:48;11.40;95.60
152;DHT22;68;48.792;9.164;2023-04-24T06:41:15;11.40;95.50
152;DHT22;68;48.792;9.164;2023-04-24T06:43:42;11.40;95.50
152;DHT22;68;48.792;9.164;2023-04-24T06:46:09;11.70;95.50
152;DHT22;68;48.792;9.164;2023-04-24T06:48:37;11.80;95.30
152;DHT22;68;48.792;9.164;2023-04-24T06:51:04;11.90;95.40
152;DHT22;68;48.792;9.164;2023-04-24T06:53:31;12.00;94.50
152;DHT22;68;48.792;9.164;2023-04-24T06:55:58;12.00;94.00
152;DHT22;68;48.792;9.164;2023-04-24T06:58:25;12.00;93.20
152;DHT22;68;48.792;9.164;2023-04-24T07:00:52;12.10;94.50
152;DHT22;68;48.792;9.164;2023-04-24T07:03:19;12.00;91.30
152;DHT22;68;48.792;9.164;2023-04-24T07:05:48;12.00;92.00
152;DHT22;68;48.792;9.164;2023-04-24T07:08:15;11.90;89.70
152;DHT22;68;48.792;9.164;2023-04-24T07:10:43;12.10;90.70
152;DHT22;68;48.792;9.164;2023-04-24T07:13:10;12.10;91.30
152;DHT22;68;48.792;9.164;2023-04-24T07:15:37;12.00;91.70
152;DHT22;68;48.792;9.164;2023-04-24T07:18:04;12.00;91.90
152;DHT22;68;48.792;9.164;2023-04-24T07:20:31;11.90;93.30
152;DHT22;68;48.792;9.164;2023-04-24T07:23:00;11.70;92.80
152;DHT22;68;48.792;9.164;2023-04-24T07:25:26;11.70;92.90
152;DHT22;68;48.792;9.164;2023-04-24T07:27:53;11.80;91.10
152;DHT22;68;48.792;9.164;2023-04-24T07:30:20;11.60;88.10
152;DHT22;68;48.792;9.164;2023-04-24T07:32:47;11.60;86.70
152;DHT22;68;48.792;9.164;2023-04-24T07:35:13;11.80;87.80
152;DHT22;68;48.792;9.164;2023-04-24T07:37:40;12.00;87.40
152;DHT22;68;48.792;9.164;2023-04-24T07:40:12;12.10;85.10
152;DHT22;68;48.792;9.164;2023-04-24T07:42:39;12.30;83.70
152;DHT22;68;48.792;9.164;2023-04-24T07:45:06;12.50;81.20
152;DHT22;68;48.792;9.164;2023-04-24T07:47:34;12.70;80.20
152;DHT22;68;48.792;9.164;2023-04-24T07:50:02;12.80;82.50
152;DHT22;68;48.792;9.164;2023-04-24T07:52:29;12.60;79.40
152;DHT22;68;48.792;9.164;2023-04-24T07:54:55;12.70;80.90
152;DHT22;68;48.792;9.164;2023-04-24T07:57:27;12.50;79.80
152;DHT22;68;48.792;9.164;2023-04-24T07:59:53;12.50;79.70
152;DHT22;68;48.792;9.164;2023-04-24T08:02:20;12.50;77.50
152;DHT22;68;48.792;9.164;2023-04-24T08:04:51;12.50;76.70
152;DHT22;68;48.792;9.164;2023-04-24T08:07:18;12.40;79.10
152;DHT22;68;48.792;9.164;2023-04-24T08:09:45;12.40;77.40
152;DHT22;68;48.792;9.164;2023-04-24T08:12:12;12.30;76.00
152;DHT22;68;48.792;9.164;2023-04-24T08:14:40;12.30;76.80
152;DHT22;68;48.792;9.164;2023-04-24T08:17:06;12.40;77.00
152;DHT22;68;48.792;9.164;2023-04-24T08:19:33;12.50;77.20
152;DHT22;68;48.792;9.164;2023-04-24T08:22:00;12.30;75.70
152;DHT22;68;48.792;9.164;2023-04-24T08:24:27;12.30;78.30
152;DHT22;68;48.792;9.164;2023-04-24T08:26:53;12.50;75.30
152;DHT22;68;48.792;9.164;2023-04-24T08:29:22;12.50;75.50
152;DHT22;68;48.792;9.164;2023-04-24T08:31:50;12.50;74.60
152;DHT22;68;48.792;9.164;2023-04-24T08:34:17;12.70;75.40
152;DHT22;68;48.792;9.164;2023-04-24T08:36:43;12.70;76.50
152;DHT22;68;48.792;9.164;2023-04-24T08:39:10;12.60;75.10
152;DHT22;68;48.792;9.164;2023-04-24T08:41:37;12.70;75.90
152;DHT22;68;48.792;9.164;2023-04-24T08:44:04;12.70;73.80
152;DHT22;68;48.792;9.164;2023-04-24T08:46:33;12.60;74.20
152;DHT22;68;48.792;9.164;2023-04-24T08:49:01;12.60;74.70
152;DHT22;68;48.792;9.164;2023-04-24T08:51:29;12.50;74.60
152;DHT22;68;48.792;9.164;2023-04-24T08:53:57;12.60;75.10
152;DHT22;68;48.792;9.164;2023-04-24T08:56:24;12.50;74.90
152;DHT22;68;48.792;9.164;2023-04-24T08:58:53;12.40;76.90
152;DHT22;68;48.792;9.164;2023-04-24T09:01:20;12.30;77.80
152;DHT22;68;48.792;9.164;2023-04-24T09:03:48;12.10;80.20
152;DHT22;68;48.792;9.164;2023-04-24T09:06:17;12.10;80.80
152;DHT22;68;48.792;9.164;2023-04-24T09:08:45;12.30;78.40
152;DHT22;68;48.792;9.164;2023-04-24T09:11:13;12.20;78.80
152;DHT22;68;48.792;9.164;2023-04-24T09:13:40;12.20;78.00
152;DHT22;68;48.792;9.164;2023-04-24T09:16:07;12.00;78.00
152;DHT22;68;48.792;9.164;2023-04-24T09:18:34;11.70;78.90
152;DHT22;68;48.792;9.164;2023-04-24T09:21:02;11.60;81.10
152;DHT22;68;48.792;9.164;2023-04-24T09:23:32;11.50;83.90
152;DHT22;68;48.792;9.164;2023-04-24T09:26:00;11.60;85.90
152;DHT22;68;48.792;9.164;2023-04-24T09:28:30;11.60;87.10
152;DHT22;68;48.792;9.164;2023-04-24T09:31:05;11.50;87.40
152;DHT22;68;48.792;9.164;2023-04-24T09:33:32;11.30;87.60
152;DHT22;68;48.792;9.164;2023-04-24T09:35:59;11.30;88.50
152;DHT22;68;48.792;9.164;2023-04-24T09:38:35;11.20;87.40
152;DHT22;68;48.792;9.164;2023-04-24T09:41:02;11.50;86.60
152;DHT22;68;48.792;9.164;2023-04-24T09:43:29;11.50;84.80
152;DHT22;68;48.792;9.164;2023-04-24T09:45:57;11.70;85.80
152;DHT22;68;48.792;9.164;2023-04-24T09:48:31;11.80;84.30
152;DHT22;68;48.792;9.164;2023-04-24T09:50:59;11.90;83.10
152;DHT22;68;48.792;9.164;2023-04-24T09:53:27;11.80;82.10
152;DHT22;68;48.792;9.164;2023-04-24T09:55:56;12.20;82.60
152;DHT22;68;48.792;9.164;2023-04-24T09:58:26;12.20;81.20
152;DHT22;68;48.792;9.164;2023-04-24T10:00:56;12.00;79.90
152;DHT22;68;48.792;9.164;2023-04-24T10:03:24;11.80;79.10
152;DHT22;68;48.792;9.164;2023-04-24T10:05:52;12.00;78.70
152;DHT22;68;48.792;9.164;2023-04-24T10:08:19;12.10;77.70
152;DHT22;68;48.792;9.164;2023-04-24T10:10:47;12.20;76.80
152;DHT22;68;48.792;9.164;2023-04-24T10:13:15;12.20;76.30
152;DHT22;68;48.792;9.164;2023-04-24T10:15:42;12.20;77.50
152;DHT22;68;48.792;9.164;2023-04-24T10:18:09;12.40;74.60
152;DHT22;68;48.792;9.164;2023-04-24T10:20:38;12.70;75.10
152;DHT22;68;48.792;9.164;2023-04-24T10:23:05;13.10;72.00
152;DHT22;68;48.792;9.164;2023-04-24T10:25:33;13.40;69.00
152;DHT22;68;48.792;9.164;2023-04-24T10:28:01;13.60;69.20
152;DHT22;68;48.792;9.164;2023-04-24T10:30:30;13.70;68.10
152;DHT22;68;48.792;9.164;2023-04-24T10:33:00;14.10;68.50
152;DHT22;68;48.792;9.164;2023-04-24T10:35:30;14.10;65.90
152;DHT22;68;48.792;9.164;2023-04-24T10:38:01;14.00;67.50
152;DHT22;68;48.792;9.164;2023-04-24T10:40:31;13.90;66.90
152;DHT22;68;48.792;9.164;2023-04-24T10:42:58;13.70;68.10
152;DHT22;68;48.792;9.164;2023-04-24T10:45:26;13.50;69.80
152;DHT22;68;48.792;9.164;2023-04-24T10:47:56;13.20;68.60
152;DHT22;68;48.792;9.164;2023-04-24T10:50:26;13.00;69.40
152;DHT22;68;48.792;9.164;2023-04-24T10:52:53;12.90;69.70
152;DHT22;68;48.792;9.164;2023-04-24T10:55:43;12.90;68.70
152;DHT22;68;48.792;9.164;2023-04-24T10:58:10;12.90;68.50
152;DHT22;68;48.792;9.164;2023-04-24T11:00:38;12.90;68.70
152;DHT22;68;48.792;9.164;2023-04-24T11:03:12;13.00;69.50
152;DHT22;68;48.792;9.164;2023-04-24T11:05:55;13.00;69.70
152;DHT22;68;48.792;9.164;2023-04-24T11:08:27;12.90;68.90
152;DHT22;68;48.792;9.164;2023-04-24T11:10:57;12.90;69.50
152;DHT22;68;48.792;9.164;2023-04-24T11:13:25;12.80;70.70
152;DHT22;68;48.792;9.164;2023-04-24T11:16:15;12.60;72.50
152;DHT22;68;48.792;9.164;2023-04-24T11:18:51;12.60;72.70
152;DHT22;68;48.792;9.164;2023-04-24T11:21:19;12.80;72.10
152;DHT22;68;48.792;9.164;2023-04-24T11:23:46;12.70;71.40
152;DHT22;68;48.792;9.164;2023-04-24T11:26:17;12.90;70.80
152;DHT22;68;48.792;9.164;2023-04-24T11:28:45;13.30;71.30
152;DHT22;68;48.792;9.164;2023-04-24T11:31:34;13.90;68.90
152;DHT22;68;48.792;9.164;2023-04-24T11:34:08;15.10;64.70
152;DHT22;68;48.792;9.164;2023-04-24T11:36:35;16.00;62.80
152;DHT22;68;48.792;9.164;2023-04-24T11:39:02;16.00;61.30
152;DHT22;68;48.792;9.164;2023-04-24T11:41:29;15.40;61.80
152;DHT22;68;48.792;9.164;2023-04-24T11:43:57;15.00;62.90
152;DHT22;68;48.792;9.164;2023-04-24T11:46:27;14.60;63.90
152;DHT22;68;48.792;9.164;2023-04-24T11:48:55;14.20;67.00
152;DHT22;68;48.792;9.164;2023-04-24T11:51:24;13.90;67.10
152;DHT22;68;48.792;9.164;2023-04-24T11:53:51;13.50;71.00
152;DHT22;68;48.792;9.164;2023-04-24T11:56:18;12.70;76.70
152;DHT22;68;48.792;9.164;2023-04-24T11:58:45;12.80;78.00
152;DHT22;68;48.792;9.164;2023-04-24T12:01:12;12.90;78.10
152;DHT22;68;48.792;9.164;2023-04-24T12:03:39;13.40;77.60
152;DHT22;68;48.792;9.164;2023-04-24T12:06:09;13.80;72.20
152;DHT22;68;48.792;9.164;2023-04-24T12:08:38;14.20;69.30
152;DHT22;68;48.792;9.164;2023-04-24T12:11:06;14.70;69.40
152;DHT22;68;48.792;9.164;2023-04-24T12:13:34;14.60;69.70
152;DHT22;68;48.792;9.164;2023-04-24T12:16:02;13.90;68.20
152;DHT22;68;48.792;9.164;2023-04-24T12:18:33;13.50;68.10
152;DHT22;68;48.792;9.164;2023-04-24T12:21:15;13.60;69.50
152;DHT22;68;48.792;9.164;2023-04-24T12:23:44;13.50;70.30
152;DHT22;68;48.792;9.164;2023-04-24T12:26:11;13.40;69.80
152;DHT22;68;48.792;9.164;2023-04-24T12:28:39;13.10;69.20
152;DHT22;68;48.792;9.164;2023-04-24T12:31:06;13.20;69.30
152;DHT22;68;48.792;9.164;2023-04-24T12:33:36;13.30;70.10
152;DHT22;68;48.792;9.164;2023-04-24T12:36:04;13.40;68.90
152;DHT22;68;48.792;9.164;2023-04-24T12:38:31;13.30;69.50
152;DHT22;68;48.792;9.164;2023-04-24T12:41:08;13.20;69.50
152;DHT22;68;48.792;9.164;2023-04-24T12:43:35;13.20;71.00
152;DHT22;68;48.792;9.164;2023-04-24T12:46:02;13.60;67.70
152;DHT22;68;48.792;9.164;2023-04-24T12:48:29;14.00;68.30
152;DHT22;68;48.792;9.164;2023-04-24T12:50:57;14.00;67.40
152;DHT22;68;48.792;9.164;2023-04-24T12:53:26;14.20;66.70
152;DHT22;68;48.792;9.164;2023-04-24T12:55:55;13.60;69.20
152;DHT22;68;48.792;9.164;2023-04-24T12:58:23;13.30;70.00
152;DHT22;68;48.792;9.164;2023-04-24T13:00:50;13.00;69.60
152;DHT22;68;48.792;9.164;2023-04-24T13:03:16;12.70;71.60
152;DHT22;68;48.792;9.164;2023-04-24T13:05:43;12.50;76.00
152;DHT22;68;48.792;9.164;2023-04-24T13:08:10;12.30;79.40
152;DHT22;68;48.792;9.164;2023-04-24T13:10:38;12.30;83.10
152;DHT22;68;48.792;9.164;2023-04-24T13:13:06;12.20;83.70
152;DHT22;68;48.792;9.164;2023-04-24T13:15:34;12.20;86.90
152;DHT22;68;48.792;9.164;2023-04-24T13:18:01;12.50;88.10
152;DHT22;68;48.792;9.164;2023-04-24T13:20:27;12.60;83.70
152;DHT22;68;48.792;9.164;2023-04-24T13:22:55;12.60;81.90
152;DHT22;68;48.792;9.164;2023-04-24T13:25:22;12.70;80.60
152;DHT22;68;48.792;9.164;2023-04-24T13:27:50;12.90;81.00
152;DHT22;68;48.792;9.164;2023-04-24T13:30:17;13.00;78.40
152;DHT22;68;48.792;9.164;2023-04-24T13:32:45;13.10;79.10
152;DHT22;68;48.792;9.164;2023-04-24T13:35:12;13.20;81.80
152;DHT22;68;48.792;9.164;2023-04-24T13:37:38;13.10;81.70
152;DHT22;68;48.792;9.164;2023-04-24T13:40:06;13.00;80.80
152;DHT22;68;48.792;9.164;2023-04-24T13:42:33;13.00;78.90
152;DHT22;68;48.792;9.164;2023-04-24T13:45:00;12.90;78.10
152;DHT22;68;48.792;9.164;2023-04-24T13:47:27;13.00;78.00
152;DHT22;68;48.792;9.164;2023-04-24T13:49:55;13.00;78.00
152;DHT22;68;48.792;9.164;2023-04-24T13:52:22;12.80;78.70
152;DHT22;68;48.792;9.164;2023-04-24T13:54:48;12.60;83.30
152;DHT22;68;48.792;9.164;2023-04-24T13:57:15;12.40;85.70
152;DHT22;68;48.792;9.164;2023-04-24T13:59:42;11.80;88.50
152;DHT22;68;48.792;9.164;2023-04-24T14:02:10;11.50;90.60
152;DHT22;68;48.792;9.164;2023-04-24T14:04:37;11.40;93.80
152;DHT22;68;48.792;9.164;2023-04-24T14:07:05;11.40;94.30
152;DHT22;68;48.792;9.164;2023-04-24T14:09:33;11.80;94.80
152;DHT22;68;48.792;9.164;2023-04-24T14:12:00;11.90;92.80
152;DHT22;68;48.792;9.164;2023-04-24T14:14:27;12.10;93.80
152;DHT22;68;48.792;9.164;2023-04-24T14:16:55;12.10;90.50
152;DHT22;68;48.792;9.164;2023-04-24T14:19:21;11.90;91.00
152;DHT22;68;48.792;9.164;2023-04-24T14:21:49;12.00;89.30
152;DHT22;68;48.792;9.164;2023-04-24T14:24:18;12.10;90.90
152;DHT22;68;48.792;9.164;2023-04-24T14:26:45;12.30;87.50
152;DHT22;68;48.792;9.164;2023-04-24T14:29:12;12.50;86.80
152;DHT22;68;48.792;9.164;2023-04-24T14:31:38;12.70;86.70
152;DHT22;68;48.792;9.164;2023-04-24T14:34:05;12.70;83.10
152;DHT22;68;48.792;9.164;2023-04-24T14:36:32;12.70;82.10
152;DHT22;68;48.792;9.164;2023-04-24T14:38:59;12.80;82.20
152;DHT22;68;48.792;9.164;2023-04-24T14:41:30;12.80;80.30
152;DHT22;68;48.792;9.164;2023-04-24T14:43:57;12.80;80.50
152;DHT22;68;48.792;9.164;2023-04-24T14:46:23;12.70;81.10
152;DHT22;68;48.792;9.164;2023-04-24T14:48:50;12.50;80.70
152;DHT22;68;48.792;9.164;2023-04-24T14:51:17;12.50;81.60
152;DHT22;68;48.792;9.164;2023-04-24T14:53:43;12.40;81.00
152;DHT22;68;48.792;9.164;2023-04-24T14:56:12;12.70;80.40
152;DHT22;68;48.792;9.164;2023-04-24T14:58:42;12.80;80.90
152;DHT22;68;48.792;9.164;2023-04-24T15:01:09;12.90;81.10
152;DHT22;68;48.792;9.164;2023-04-24T15:03:36;13.00;80.90
152;DHT22;68;48.792;9.164;2023-04-24T15:06:03;13.10;78.40
152;DHT22;68;48.792;9.164;2023-04-24T15:08:30;13.00;80.30
152;DHT22;68;48.792;9.164;2023-04-24T15:10:57;12.80;79.70
152;DHT22;68;48.792;9.164;2023-04-24T15:13:24;12.50;78.80
152;DHT22;68;48.792;9.164;2023-04-24T15:15:52;12.30;78.70
152;DHT22;68;48.792;9.164;2023-04-24T15:18:19;12.40;79.60
152;DHT22;68;48.792;9.164;2023-04-24T15:20:46;12.50;80.00
152;DHT22;68;48.792;9.164;2023-04-24T15:23:13;12.50;79.00
152;DHT22;68;48.792;9.164;2023-04-24T15:25:39;12.40;79.60
152;DHT22;68;48.792;9.164;2023-04-24T15:28:06;12.30;77.20
152;DHT22;68;48.792;9.164;2023-04-24T15:30:33;12.20;78.00
152;DHT22;68;48.792;9.164;2023-04-24T15:33:01;12.30;79.80
152;DHT22;68;48.792;9.164;2023-04-24T15:35:28;12.20;81.30
152;DHT22;68;48.792;9.164;2023-04-24T15:37:55;12.10;84.60
152;DHT22;68;48.792;9.164;2023-04-24T15:40:22;11.90;90.10
152;DHT22;68;48.792;9.164;2023-04-24T15:42:48;11.70;92.10
152;DHT22;68;48.792;9.164;2023-04-24T15:45:15;11.60;92.20
152;DHT22;68;48.792;9.164;2023-04-24T15:47:44;11.60;93.30
152;DHT22;68;48.792;9.164;2023-04-24T15:50:12;11.40;94.00
152;DHT22;68;48.792;9.164;2023-04-24T15:52:41;11.20;93.20
152;DHT22;68;48.792;9.164;2023-04-24T15:55:08;11.30;92.90
152;DHT22;68;48.792;9.164;2023-04-24T15:57:36;11.50;93.20
152;DHT22;68;48.792;9.164;2023-04-24T16:00:03;11.60;93.20
152;DHT22;68;48.792;9.164;2023-04-24T16:02:31;11.60;92.50
152;DHT22;68;48.792;9.164;2023-04-24T16:04:58;11.70;91.90
152;DHT22;68;48.792;9.164;2023-04-24T16:07:26;11.60;91.10
152;DHT22;68;48.792;9.164;2023-04-24T16:09:53;11.60;92.00
152;DHT22;68;48.792;9.164;2023-04-24T16:12:20;11.70;92.50
152;DHT22;68;48.792;9.164;2023-04-24T16:14:47;11.70;92.50
152;DHT22;68;48.792;9.164;2023-04-24T16:17:13;11.70;92.60
152;DHT22;68;48.792;9.164;2023-04-24T16:19:40;11.70;91.60
152;DHT22;68;48.792;9.164;2023-04-24T16:22:07;11.60;91.80
152;DHT22;68;48.792;9.164;2023-04-24T16:24:35;11.50;93.00
152;DHT22;68;48.792;9.164;2023-04-24T16:27:02;11.60;93.30
152;DHT22;68;48.792;9.164;2023-04-24T16:29:30;11.60;94.00
152;DHT22;68;48.792;9.164;2023-04-24T16:31:57;11.30;90.10
152;DHT22;68;48.792;9.164;2023-04-24T16:34:24;11.40;90.90
152;DHT22;68;48.792;9.164;2023-04-24T16:36:50;11.50;93.20
152;DHT22;68;48.792;9.164;2023-04-24T16:39:17;11.50;93.70
152;DHT22;68;48.792;9.164;2023-04-24T16:41:45;11.50;93.50
152;DHT22;68;48.792;9.164;2023-04-24T16:44:14;11.50;93.00
152;DHT22;68;48.792;9.164;2023-04-24T16:46:40;11.60;91.70
152;DHT22;68;48.792;9.164;2023-04-24T16:49:07;11.80;92.90
152;DHT22;68;48.792;9.164;2023-04-24T16:51:34;12.00;91.90
152;DHT22;68;48.792;9.164;2023-04-24T16:54:01;11.90;89.10